Time;durP1;ratioP1;P1;durP2;ratioP2;P2;SDS_P1;SDS_P2;PMS_P1;PMS_P2;Temp;Humidity;BMP_temperature;BMP_pressure;BME280_temperature;BME280_humidity;BME280_pressure;Samples;Min_cycle;Max_cycle;Signal;HPM_P1;HPM_P2
2022/12/21 00:01:44;;;;;;;6.60;6.00;;;21.90;55.10;;;;;;4895778;29;20832;-64
2022/12/21 00:04:16;;;;;;;6.23;5.63;;;22.00;55.20;;;;;;4893346;29;20955;-65
2022/12/21 00:06:44;;;;;;;7.63;6.93;;;22.00;55.20;;;;;;4893419;29;20951;-64
2022/12/21 00:09:14;;;;;;;7.00;6.33;;;22.00;55.20;;;;;;4898046;29;20850;-64
2022/12/21 00:11:43;;;;;;;6.43;5.93;;;22.00;55.20;;;;;;4898638;29;20486;-64
2022/12/21 00:14:11;;;;;;;6.67;6.17;;;22.00;55.20;;;;;;4897201;29;20569;-64
2022/12/21 00:16:41;;;;;;;6.90;6.10;;;22.00;55.10;;;;;;4899119;29;20430;-63
2022/12/21 00:19:13;;;;;;;7.47;6.77;;;22.00;55.10;;;;;;4892493;29;20465;-64
2022/12/21 00:21:41;;;;;;;5.80;5.30;;;22.00;55.10;;;;;;4889441;29;20528;-66
2022/12/21 00:24:09;;;;;;;6.60;6.00;;;22.00;55.00;;;;;;4896285;29;20923;-62
2022/12/21 00:26:38;;;;;;;6.53;5.93;;;22.00;55.00;;;;;;4896287;29;20489;-68
2022/12/21 00:29:08;;;;;;;6.50;5.90;;;22.00;54.90;;;;;;4898451;29;20550;-63
2022/12/21 00:31:38;;;;;;;6.33;5.73;;;22.00;54.90;;;;;;4896914;29;20481;-64
2022/12/21 00:34:06;;;;;;;5.80;5.40;;;22.00;54.90;;;;;;4893449;29;20547;-63
2022/12/21 00:36:36;;;;;;;6.13;5.73;;;22.00;54.90;;;;;;4898135;29;20465;-64
2022/12/21 00:39:04;;;;;;;5.83;5.33;;;21.90;54.90;;;;;;4898035;29;20458;-63
2022/12/21 00:41:32;;;;;;;5.83;5.33;;;22.00;54.90;;;;;;4897826;29;20473;-63
2022/12/21 00:44:01;;;;;;;6.03;5.63;;;21.90;54.90;;;;;;4897399;29;20557;-65
2022/12/21 00:46:32;;;;;;;6.10;5.60;;;21.90;54.90;;;;;;4887910;29;20501;-63
2022/12/21 00:49:02;;;;;;;5.40;5.00;;;21.90;54.90;;;;;;4897439;29;20453;-63
2022/12/21 00:51:33;;;;;;;6.40;5.90;;;21.90;54.90;;;;;;4896840;29;20593;-63
2022/12/21 00:54:01;;;;;;;5.67;5.27;;;21.90;54.90;;;;;;4896713;29;20464;-63
2022/12/21 00:56:29;;;;;;;6.00;5.60;;;21.90;54.90;;;;;;4894282;29;20861;-63
2022/12/21 00:58:58;;;;;;;5.90;5.43;;;21.90;54.80;;;;;;4891573;29;20821;-67
2022/12/21 01:01:28;;;;;;;6.20;5.70;;;21.90;54.80;;;;;;4895297;29;20930;-64
2022/12/21 01:03:59;;;;;;;6.30;5.70;;;22.00;54.80;;;;;;4897793;29;20906;-63
2022/12/21 01:06:29;;;;;;;6.17;5.53;;;21.90;54.80;;;;;;4878677;29;20474;-63
2022/12/21 01:08:57;;;;;;;5.50;5.10;;;21.90;54.80;;;;;;4878343;29;20446;-64
2022/12/21 01:11:28;;;;;;;6.23;5.73;;;22.00;54.80;;;;;;4895070;29;20564;-63
2022/12/21 01:13:57;;;;;;;5.77;5.27;;;22.00;54.80;;;;;;4896173;29;20960;-64
2022/12/21 01:16:27;;;;;;;6.70;5.73;;;22.00;54.80;;;;;;4896934;29;20955;-64
2022/12/21 01:19:00;;;;;;;5.53;5.03;;;21.90;54.80;;;;;;4890775;29;20458;-63
2022/12/21 01:21:30;;;;;;;5.70;5.30;;;22.00;54.70;;;;;;4885453;29;20454;-63
2022/12/21 01:24:00;;;;;;;5.43;5.03;;;22.00;54.70;;;;;;4878094;29;20488;-64
2022/12/21 01:26:29;;;;;;;6.17;5.73;;;22.00;54.70;;;;;;4878925;29;20523;-63
2022/12/21 01:28:58;;;;;;;5.40;5.00;;;22.00;54.70;;;;;;4878990;29;20450;-63
2022/12/21 01:31:26;;;;;;;6.13;5.70;;;22.00;54.70;;;;;;4878560;29;20470;-66
2022/12/21 01:33:54;;;;;;;6.27;5.77;;;22.00;54.70;;;;;;4888866;29;20494;-65
2022/12/21 01:36:24;;;;;;;6.20;5.60;;;22.00;54.70;;;;;;4896711;29;20465;-63
2022/12/21 01:38:52;;;;;;;5.73;5.23;;;22.00;54.70;;;;;;4896969;29;20820;-63
2022/12/21 01:41:23;;;;;;;5.10;4.70;;;22.00;54.70;;;;;;4895601;29;20482;-63
2022/12/21 01:43:55;;;;;;;6.47;5.87;;;22.00;54.60;;;;;;4877341;29;20511;-64
2022/12/21 01:46:28;;;;;;;5.60;5.20;;;22.00;54.60;;;;;;4890450;29;20569;-63
2022/12/21 01:49:05;;;;;;;5.53;5.13;;;22.00;54.60;;;;;;4893067;29;20461;-63
2022/12/21 01:51:37;;;;;;;5.43;5.03;;;22.00;54.60;;;;;;4897800;29;20470;-64
2022/12/21 01:54:12;;;;;;;5.10;4.73;;;22.00;54.60;;;;;;4898902;29;20477;-64
2022/12/21 01:56:44;;;;;;;5.17;4.83;;;22.00;54.60;;;;;;4882448;29;20493;-64
2022/12/21 01:59:21;;;;;;;4.70;4.30;;;22.00;54.60;;;;;;4896921;29;21002;-63
2022/12/21 02:01:49;;;;;;;6.03;5.53;;;22.00;54.50;;;;;;4890875;29;20481;-63
2022/12/21 02:04:18;;;;;;;6.07;5.57;;;22.00;54.50;;;;;;4888226;29;20453;-63
2022/12/21 02:06:52;;;;;;;4.87;4.50;;;22.00;54.50;;;;;;4899219;29;20480;-63
2022/12/21 02:09:22;;;;;;;5.20;4.80;;;22.00;54.50;;;;;;4900970;29;20453;-63
2022/12/21 02:11:52;;;;;;;5.43;5.03;;;22.00;54.50;;;;;;4900452;29;20487;-67
2022/12/21 02:14:20;;;;;;;5.50;5.00;;;22.00;54.50;;;;;;4894806;29;20474;-65
2022/12/21 02:17:05;;;;;;;5.30;4.90;;;22.00;54.50;;;;;;4900448;29;20949;-64
2022/12/21 02:20:17;;;;;;;5.50;5.00;;;22.00;54.50;;;;;;4900395;29;20457;-63
2022/12/21 02:23:11;;;;;;;5.13;4.73;;;22.00;54.50;;;;;;4899846;29;20490;-63
2022/12/21 02:26:09;;;;;;;4.90;4.50;;;22.00;54.50;;;;;;4895626;29;20469;-63
2022/12/21 02:29:11;;;;;;;4.93;4.43;;;22.00;54.50;;;;;;4885583;29;20473;-63
2022/12/21 02:31:54;;;;;;;5.53;5.13;;;22.00;54.50;;;;;;4896927;29;20460;-64
2022/12/21 02:34:31;;;;;;;4.37;4.07;;;22.00;54.50;;;;;;4897821;29;20512;-64
2022/12/21 02:37:06;;;;;;;5.07;4.67;;;22.00;54.50;;;;;;4898811;29;20520;-63
2022/12/21 02:39:45;;;;;;;5.73;5.23;;;22.00;54.50;;;;;;4900398;29;20449;-63
2022/12/21 02:45:10;;;;;;;4.47;4.17;;;22.00;54.50;;;;;;4883574;29;20470;-64
2022/12/21 02:47:45;;;;;;;4.77;4.47;;;22.00;54.50;;;;;;4911257;29;20557;-65
2022/12/21 02:50:16;;;;;;;5.00;4.60;;;22.00;54.50;;;;;;4898124;29;20457;-64
2022/12/21 02:52:49;;;;;;;5.80;5.40;;;22.00;54.50;;;;;;4898510;29;20498;-64
2022/12/21 02:55:18;;;;;;;5.00;4.60;;;22.00;54.50;;;;;;4890797;29;20493;-64
2022/12/21 02:57:46;;;;;;;6.63;5.97;;;22.00;54.40;;;;;;4897937;29;20477;-64
2022/12/21 03:00:19;;;;;;;4.97;4.67;;;22.00;54.40;;;;;;4899020;29;20454;-63
2022/12/21 03:06:17;;;;;;;5.40;4.90;;;22.00;54.40;;;;;;4879488;29;20472;-63
2022/12/21 03:08:57;;;;;;;5.67;5.17;;;22.00;54.40;;;;;;4887332;29;20470;-66
2022/12/21 03:11:31;;;;;;;5.20;4.77;;;22.00;54.40;;;;;;4886524;29;20522;-64
2022/12/21 03:14:06;;;;;;;5.07;4.63;;;22.00;54.40;;;;;;4897480;29;20496;-63
2022/12/21 03:16:45;;;;;;;4.90;4.50;;;22.00;54.40;;;;;;4896342;29;20470;-63
2022/12/21 03:19:19;;;;;;;5.37;4.97;;;22.00;54.40;;;;;;4898632;29;20502;-63
2022/12/21 03:21:53;;;;;;;4.50;4.20;;;22.00;54.40;;;;;;4897219;29;20511;-63
2022/12/21 03:24:26;;;;;;;4.80;4.40;;;22.00;54.30;;;;;;4895691;29;20492;-66
2022/12/21 03:26:59;;;;;;;4.43;4.13;;;22.00;54.30;;;;;;4897102;29;20781;-65
2022/12/21 03:29:33;;;;;;;4.53;4.13;;;22.00;54.30;;;;;;4899541;29;20827;-63
2022/12/21 03:32:07;;;;;;;4.13;3.83;;;22.00;54.30;;;;;;4897889;29;20468;-64
2022/12/21 03:34:40;;;;;;;4.80;4.40;;;22.00;54.30;;;;;;4889386;29;20468;-64
2022/12/21 03:37:12;;;;;;;4.80;4.40;;;22.00;54.30;;;;;;4898318;29;20443;-64
2022/12/21 03:39:48;;;;;;;5.23;4.73;;;22.00;54.30;;;;;;4896176;29;20467;-65
2022/12/21 03:42:19;;;;;;;4.73;4.33;;;22.00;54.30;;;;;;4894415;29;20501;-64
2022/12/21 03:44:54;;;;;;;4.37;4.07;;;22.00;54.30;;;;;;4896070;29;20470;-65
2022/12/21 03:47:27;;;;;;;4.23;3.93;;;22.00;54.30;;;;;;4880009;29;20523;-63
2022/12/21 03:50:01;;;;;;;3.80;3.60;;;22.00;54.30;;;;;;4880826;29;20438;-63
2022/12/21 03:52:34;;;;;;;5.30;4.80;;;22.00;54.30;;;;;;4879451;29;20898;-64
2022/12/21 03:55:07;;;;;;;4.20;3.90;;;22.00;54.30;;;;;;4894532;29;20551;-63
2022/12/21 03:57:36;;;;;;;4.00;3.80;;;22.00;54.30;;;;;;4917775;29;20456;-65
2022/12/21 04:00:06;;;;;;;5.33;4.90;;;22.00;54.30;;;;;;4901298;29;20466;-64
2022/12/21 04:02:47;;;;;;;4.30;4.00;;;22.00;54.30;;;;;;4898851;29;20481;-63
2022/12/21 04:05:21;;;;;;;4.40;4.00;;;22.00;54.30;;;;;;4898553;29;20493;-66
2022/12/21 04:07:54;;;;;;;4.90;4.50;;;22.00;54.30;;;;;;4898245;29;20533;-63
2022/12/21 04:10:23;;;;;;;4.03;3.83;;;22.00;54.30;;;;;;4898863;29;20805;-63
2022/12/21 04:12:50;;;;;;;4.57;4.27;;;22.00;54.30;;;;;;4896000;29;20608;-64
2022/12/21 04:15:20;;;;;;;4.70;4.40;;;22.00;54.30;;;;;;4895109;29;20486;-64
2022/12/21 04:17:50;;;;;;;4.23;3.93;;;22.00;54.30;;;;;;4898072;29;20836;-64
2022/12/21 04:20:21;;;;;;;4.63;4.33;;;22.00;54.30;;;;;;4896204;29;20464;-64
2022/12/21 04:28:23;;;;;;;3.70;3.40;;;22.00;54.30;;;;;;4893495;29;20462;-64
2022/12/21 04:31:11;;;;;;;4.90;4.50;;;22.00;54.30;;;;;;4898557;29;20442;-64
2022/12/21 04:33:39;;;;;;;4.40;4.07;;;22.00;54.30;;;;;;4895238;29;20474;-63
2022/12/21 04:38:55;;;;;;;4.63;4.30;;;22.10;54.20;;;;;;4897878;29;20455;-63
2022/12/21 04:41:23;;;;;;;4.40;4.00;;;22.00;54.30;;;;;;4894785;29;20513;-63
2022/12/21 04:43:51;;;;;;;4.50;4.17;;;22.00;54.30;;;;;;4897349;29;20454;-64
2022/12/21 04:46:19;;;;;;;5.10;4.70;;;22.00;54.30;;;;;;4897121;29;20457;-63
2022/12/21 04:48:48;;;;;;;4.63;4.23;;;22.00;54.20;;;;;;4896693;29;20466;-63
2022/12/21 04:51:20;;;;;;;4.57;4.27;;;22.00;54.20;;;;;;4898576;29;20985;-63
2022/12/21 04:53:48;;;;;;;4.30;3.90;;;22.10;54.20;;;;;;4878499;29;20470;-63
2022/12/21 04:56:18;;;;;;;4.83;4.53;;;22.10;54.20;;;;;;4886188;29;20962;-63
2022/12/21 04:58:46;;;;;;;4.77;4.37;;;22.10;54.20;;;;;;4895107;29;20490;-65
2022/12/21 05:01:17;;;;;;;4.43;4.03;;;22.00;54.20;;;;;;4898253;29;20955;-63
2022/12/21 05:03:46;;;;;;;4.10;3.80;;;22.00;54.20;;;;;;4896714;29;20832;-64
2022/12/21 05:06:15;;;;;;;5.07;4.67;;;22.10;54.20;;;;;;4898152;29;20458;-63
2022/12/21 05:08:45;;;;;;;4.40;4.10;;;22.10;54.20;;;;;;4896910;29;20438;-64
2022/12/21 05:11:16;;;;;;;4.00;3.70;;;22.00;54.20;;;;;;4893256;29;20465;-63
2022/12/21 05:13:44;;;;;;;4.07;3.77;;;22.10;54.20;;;;;;4888363;29;20576;-64
2022/12/21 05:16:15;;;;;;;4.37;4.00;;;22.10;54.20;;;;;;4896387;29;20497;-63
2022/12/21 05:18:44;;;;;;;4.43;3.50;;;22.10;54.20;;;;;;4897585;29;20515;-64
2022/12/21 05:21:12;;;;;;;4.33;4.03;;;22.10;54.20;;;;;;4897491;29;20465;-64
2022/12/21 05:23:41;;;;;;;3.40;3.10;;;22.00;54.20;;;;;;4895018;29;20528;-65
2022/12/21 05:26:11;;;;;;;4.23;3.93;;;22.00;54.20;;;;;;4892578;29;20952;-64
2022/12/21 05:28:43;;;;;;;4.10;3.80;;;22.00;54.20;;;;;;4896583;29;20442;-64
2022/12/21 05:31:13;;;;;;;4.30;3.90;;;22.00;54.30;;;;;;4895836;29;20449;-64
2022/12/21 05:33:41;;;;;;;3.93;3.63;;;22.00;54.30;;;;;;4894565;29;20541;-64
2022/12/21 05:36:11;;;;;;;4.10;3.87;;;22.00;54.30;;;;;;4897691;29;20573;-64
2022/12/21 05:38:39;;;;;;;4.30;4.00;;;22.00;54.30;;;;;;4891108;29;20462;-63
2022/12/21 05:41:08;;;;;;;3.87;3.63;;;22.00;54.40;;;;;;4893820;29;20481;-65
2022/12/21 05:43:37;;;;;;;3.90;3.60;;;22.10;54.30;;;;;;4896374;29;20559;-64
2022/12/21 05:46:07;;;;;;;4.53;3.90;;;22.10;54.40;;;;;;4897008;29;20944;-65
2022/12/21 05:48:36;;;;;;;4.53;4.20;;;22.10;54.50;;;;;;4882533;29;20469;-66
2022/12/21 05:51:08;;;;;;;4.20;3.47;;;22.10;54.60;;;;;;4888744;29;20811;-64
2022/12/21 05:53:37;;;;;;;4.53;4.13;;;22.10;54.60;;;;;;4883569;29;20510;-64
2022/12/21 05:56:06;;;;;;;3.77;3.47;;;22.10;54.70;;;;;;4887504;29;20565;-64
2022/12/21 05:58:34;;;;;;;4.37;4.00;;;22.10;54.80;;;;;;4892954;29;20460;-64
2022/12/21 06:01:05;;;;;;;3.80;3.60;;;22.00;54.80;;;;;;4886829;29;20548;-64
2022/12/21 06:03:34;;;;;;;3.27;3.07;;;22.00;54.80;;;;;;4889981;29;20483;-64
2022/12/21 06:06:03;;;;;;;7.10;3.17;;;22.00;54.70;;;;;;4889998;29;20460;-65
2022/12/21 06:08:32;;;;;;;3.80;3.50;;;22.00;54.70;;;;;;4895754;29;20460;-64
2022/12/21 06:11:05;;;;;;;4.17;3.40;;;22.00;54.70;;;;;;4887663;29;20735;-65
2022/12/21 06:13:33;;;;;;;3.50;3.30;;;22.00;54.70;;;;;;4894064;29;20557;-66
2022/12/21 06:16:08;;;;;;;5.10;3.97;;;21.90;54.70;;;;;;4892746;29;20465;-65
2022/12/21 06:18:38;;;;;;;3.77;3.47;;;21.90;54.80;;;;;;4889863;29;20500;-65
2022/12/21 06:21:07;;;;;;;3.77;3.57;;;21.90;54.90;;;;;;4893088;29;20521;-65
2022/12/21 06:23:35;;;;;;;4.17;3.53;;;21.90;54.90;;;;;;4889268;29;20504;-65
2022/12/21 06:26:05;;;;;;;5.70;3.80;;;21.90;55.00;;;;;;4892099;29;20543;-65
2022/12/21 06:28:34;;;;;;;4.03;3.73;;;21.90;55.00;;;;;;4888548;29;20904;-65
2022/12/21 06:31:03;;;;;;;4.10;3.70;;;21.90;55.00;;;;;;4894551;29;20548;-65
2022/12/21 06:33:34;;;;;;;5.77;3.50;;;21.80;54.90;;;;;;4889116;29;20497;-65
2022/12/21 06:36:02;;;;;;;5.43;4.00;;;21.80;54.90;;;;;;4893897;29;20552;-65
2022/12/21 06:38:31;;;;;;;4.10;3.80;;;21.80;54.90;;;;;;4889239;29;20890;-65
2022/12/21 06:41:01;;;;;;;4.33;4.03;;;21.80;54.90;;;;;;4894017;29;20579;-66
2022/12/21 06:43:31;;;;;;;4.40;4.10;;;21.80;54.90;;;;;;4892274;29;21022;-66
2022/12/21 06:46:01;;;;;;;3.47;3.27;;;21.80;54.90;;;;;;4886424;29;20461;-65
2022/12/21 06:48:31;;;;;;;3.60;3.30;;;21.80;54.90;;;;;;4884399;29;20468;-65
2022/12/21 06:51:02;;;;;;;3.57;3.27;;;21.80;54.90;;;;;;4879358;29;20901;-65
2022/12/21 06:53:32;;;;;;;4.37;3.93;;;21.80;54.80;;;;;;4882334;29;20521;-66
2022/12/21 06:56:02;;;;;;;5.37;3.60;;;21.80;54.80;;;;;;4882630;29;20485;-65
2022/12/21 06:58:31;;;;;;;5.77;3.93;;;21.90;54.80;;;;;;4883205;29;20844;-65
2022/12/21 07:01:05;;;;;;;4.60;3.57;;;21.90;54.70;;;;;;4883123;29;20996;-65
2022/12/21 07:03:34;;;;;;;4.50;3.70;;;21.90;54.70;;;;;;4894243;29;20956;-65
2022/12/21 07:06:13;;;;;;;5.73;3.70;;;21.90;54.70;;;;;;4892658;29;20461;-64
2022/12/21 07:08:42;;;;;;;5.97;3.80;;;21.90;54.60;;;;;;4897650;29;20537;-65
2022/12/21 07:11:11;;;;;;;3.67;2.80;;;21.90;54.60;;;;;;4894844;29;20457;-65
2022/12/21 07:13:42;;;;;;;4.30;3.90;;;21.90;54.60;;;;;;4898209;29;21119;-65
2022/12/21 07:16:11;;;;;;;3.93;3.10;;;21.90;54.60;;;;;;4895288;29;20516;-65
2022/12/21 07:18:40;;;;;;;3.63;3.33;;;21.90;54.60;;;;;;4913153;29;21023;-65
2022/12/21 07:21:12;;;;;;;4.40;4.00;;;21.90;54.60;;;;;;4897597;29;20541;-65
2022/12/21 07:23:41;;;;;;;3.50;3.20;;;21.90;54.60;;;;;;4887853;29;20896;-66
2022/12/21 07:26:12;;;;;;;3.50;3.20;;;21.90;54.60;;;;;;4891225;29;20803;-65
2022/12/21 07:28:43;;;;;;;3.10;2.83;;;21.90;54.60;;;;;;4897134;29;20464;-66
2022/12/21 07:31:13;;;;;;;3.40;3.10;;;21.90;54.60;;;;;;4890613;29;21023;-65
2022/12/21 07:33:41;;;;;;;4.13;3.20;;;21.80;54.50;;;;;;4894383;29;20466;-65
2022/12/21 07:36:12;;;;;;;4.57;3.53;;;21.80;54.50;;;;;;4895951;29;20473;-66
2022/12/21 07:38:41;;;;;;;3.50;3.20;;;21.80;54.50;;;;;;4893561;29;20530;-65
2022/12/21 07:41:12;;;;;;;3.97;3.67;;;21.80;54.50;;;;;;4895431;29;20482;-65
2022/12/21 07:43:41;;;;;;;4.37;3.47;;;21.80;54.50;;;;;;4892086;29;20501;-68
2022/12/21 07:46:33;;;;;;;3.60;3.30;;;21.80;54.50;;;;;;4859799;29;20478;-64
2022/12/21 07:49:02;;;;;;;3.67;3.47;;;21.80;54.50;;;;;;4895342;29;20596;-66
2022/12/21 07:51:32;;;;;;;3.30;3.00;;;21.80;54.50;;;;;;4894122;29;21026;-65
2022/12/21 07:54:00;;;;;;;3.23;2.93;;;21.80;54.50;;;;;;4891049;29;20458;-67
2022/12/21 07:56:28;;;;;;;3.60;3.30;;;21.80;54.50;;;;;;4891099;29;20474;-65
2022/12/21 07:58:59;;;;;;;4.00;3.70;;;21.80;54.40;;;;;;4878439;29;20557;-68
2022/12/21 08:01:27;;;;;;;3.20;3.00;;;21.80;54.40;;;;;;4881492;29;20571;-66
2022/12/21 08:03:57;;;;;;;3.70;3.13;;;21.90;54.40;;;;;;4882436;29;20450;-66
2022/12/21 08:06:25;;;;;;;3.50;3.20;;;21.90;54.40;;;;;;4881212;29;20495;-65
2022/12/21 08:08:55;;;;;;;4.27;3.37;;;21.90;54.40;;;;;;4882219;29;20457;-65
2022/12/21 08:11:24;;;;;;;4.90;3.07;;;21.90;54.40;;;;;;4884022;29;20444;-64
2022/12/21 08:13:52;;;;;;;3.77;3.20;;;21.90;54.40;;;;;;4881179;29;20483;-65
2022/12/21 08:16:20;;;;;;;3.10;2.90;;;21.90;54.30;;;;;;4880337;29;20509;-65
2022/12/21 08:18:49;;;;;;;3.87;3.57;;;21.90;54.30;;;;;;4883376;29;20447;-65
2022/12/21 08:21:17;;;;;;;3.30;2.93;;;21.90;54.30;;;;;;4880047;29;20491;-64
2022/12/21 08:23:47;;;;;;;3.70;3.40;;;21.90;54.30;;;;;;4882240;29;20972;-64
2022/12/21 08:26:16;;;;;;;3.00;2.80;;;21.90;54.30;;;;;;4887080;29;20552;-65
2022/12/21 08:28:47;;;;;;;3.30;3.07;;;21.90;54.30;;;;;;4882361;29;20452;-64
2022/12/21 08:31:17;;;;;;;3.57;3.27;;;21.90;54.30;;;;;;4879403;29;20478;-66
2022/12/21 08:33:46;;;;;;;3.50;3.20;;;21.90;54.30;;;;;;4877871;29;20470;-65
2022/12/21 08:36:16;;;;;;;3.40;3.10;;;21.90;54.30;;;;;;4883472;29;20665;-65
2022/12/21 08:38:45;;;;;;;3.43;3.13;;;22.00;54.30;;;;;;4882451;29;20461;-65
2022/12/21 08:41:35;;;;;;;3.87;3.40;;;21.90;54.30;;;;;;4878077;29;20482;-65
2022/12/21 08:44:03;;;;;;;5.70;3.63;;;22.00;54.30;;;;;;4890848;29;20588;-65
2022/12/21 08:46:31;;;;;;;4.20;3.00;;;22.00;54.30;;;;;;4890524;29;20947;-65
2022/12/21 08:48:59;;;;;;;3.07;2.87;;;22.00;54.30;;;;;;4889600;29;20525;-65
2022/12/21 08:51:28;;;;;;;3.53;3.23;;;22.00;54.30;;;;;;4891220;29;20488;-66
2022/12/21 08:53:56;;;;;;;3.53;3.27;;;22.00;54.20;;;;;;4892122;29;20450;-66
2022/12/21 08:56:24;;;;;;;2.63;2.53;;;21.90;54.20;;;;;;4890012;29;20965;-65
2022/12/21 08:58:54;;;;;;;2.80;2.60;;;22.00;54.20;;;;;;4892090;29;20846;-66
2022/12/21 09:01:24;;;;;;;2.93;2.73;;;22.00;54.10;;;;;;4889787;29;20465;-65
2022/12/21 09:03:52;;;;;;;3.30;3.00;;;22.00;54.10;;;;;;4884437;29;20819;-74
2022/12/21 09:06:21;;;;;;;3.27;3.00;;;22.00;54.10;;;;;;4884747;29;20526;-68
2022/12/21 09:08:52;;;;;;;3.60;3.30;;;22.00;54.30;;;;;;4889472;29;20466;-68
2022/12/21 09:11:22;;;;;;;3.43;3.13;;;22.00;54.40;;;;;;4892276;29;20572;-68
2022/12/21 09:14:00;;;;;;;3.60;3.17;;;22.10;54.40;;;;;;4890345;29;20442;-68
2022/12/21 09:16:28;;;;;;;3.03;2.83;;;22.10;54.40;;;;;;4894885;29;20907;-67
2022/12/21 09:18:57;;;;;;;3.27;2.63;;;22.10;54.40;;;;;;4887045;29;20777;-67
2022/12/21 09:21:25;;;;;;;3.60;3.30;;;22.20;54.40;;;;;;4889277;29;20462;-67
2022/12/21 09:23:53;;;;;;;3.10;2.90;;;22.20;54.40;;;;;;4890395;29;20923;-68
2022/12/21 09:26:21;;;;;;;2.77;2.67;;;22.30;54.40;;;;;;4894391;29;20529;-67
2022/12/21 09:28:49;;;;;;;3.13;2.80;;;22.30;54.40;;;;;;4892264;29;21582;-68
2022/12/21 09:31:21;;;;;;;2.97;2.77;;;22.30;54.30;;;;;;4894212;29;20533;-69
2022/12/21 09:33:53;;;;;;;3.83;3.53;;;22.30;54.30;;;;;;4892236;29;20457;-68
2022/12/21 09:36:23;;;;;;;5.00;3.07;;;22.40;54.30;;;;;;4885742;29;20486;-68
2022/12/21 09:38:51;;;;;;;3.20;2.90;;;22.40;54.30;;;;;;4893298;29;20938;-69
2022/12/21 09:41:39;;;;;;;3.10;2.90;;;22.40;54.30;;;;;;4888750;29;20500;-68
2022/12/21 09:44:25;;;;;;;3.67;2.90;;;22.40;54.30;;;;;;4878939;29;20459;-69
2022/12/21 09:47:00;;;;;;;3.20;2.67;;;22.40;54.30;;;;;;4885193;29;20550;-69
2022/12/21 09:49:39;;;;;;;3.10;2.80;;;22.50;54.30;;;;;;4893822;29;20460;-71
2022/12/21 09:52:12;;;;;;;3.03;2.83;;;22.50;54.30;;;;;;4884206;29;20545;-71
2022/12/21 09:54:44;;;;;;;3.97;3.03;;;22.50;54.30;;;;;;4892180;29;20453;-68
2022/12/21 09:57:14;;;;;;;3.33;3.03;;;22.50;54.40;;;;;;4888952;29;20484;-68
2022/12/21 09:59:42;;;;;;;5.53;3.73;;;22.50;54.30;;;;;;4890803;29;20473;-67
2022/12/21 10:02:24;;;;;;;3.57;3.37;;;22.50;54.30;;;;;;4891206;29;20543;-69
2022/12/21 10:05:06;;;;;;;3.83;3.57;;;22.50;54.30;;;;;;4891891;29;20458;-67
2022/12/21 10:08:09;;;;;;;3.10;2.90;;;22.50;54.30;;;;;;4886888;29;20529;-68
2022/12/21 10:10:40;;;;;;;4.30;2.80;;;22.50;54.30;;;;;;4889961;29;20457;-69
2022/12/21 10:13:22;;;;;;;6.43;2.50;;;22.50;54.40;;;;;;4890775;29;20569;-68
2022/12/21 10:16:01;;;;;;;3.33;3.10;;;22.50;54.30;;;;;;4894899;29;20556;-69
2022/12/21 10:18:35;;;;;;;2.90;2.70;;;22.50;54.30;;;;;;4889126;29;20462;-65
2022/12/21 10:21:13;;;;;;;3.40;3.10;;;22.50;54.30;;;;;;4890493;29;20466;-75
2022/12/21 10:23:45;;;;;;;3.50;3.20;;;22.50;54.10;;;;;;4887840;29;20568;-67
2022/12/21 10:26:16;;;;;;;3.07;2.77;;;22.50;54.20;;;;;;4891677;29;20951;-66
2022/12/21 10:28:52;;;;;;;3.20;3.00;;;22.60;54.40;;;;;;4891076;29;20545;-67
2022/12/21 10:31:24;;;;;;;4.00;2.80;;;22.60;54.30;;;;;;4894179;29;20462;-70
2022/12/21 10:33:56;;;;;;;3.40;3.00;;;22.70;54.40;;;;;;4892809;29;20497;-67
2022/12/21 10:36:32;;;;;;;3.50;3.20;;;22.70;54.40;;;;;;4897215;29;20578;-68
2022/12/21 10:39:01;;;;;;;2.70;2.50;;;22.80;54.40;;;;;;4890068;29;20466;-67
2022/12/21 10:41:34;;;;;;;2.70;2.50;;;22.80;54.50;;;;;;4895462;29;20483;-71
2022/12/21 10:44:03;;;;;;;3.10;2.90;;;22.80;54.50;;;;;;4892664;29;20549;-66
2022/12/21 10:46:32;;;;;;;3.07;2.83;;;22.90;54.50;;;;;;4896981;29;20831;-66
2022/12/21 10:49:14;;;;;;;3.33;3.00;;;22.90;54.50;;;;;;4891043;29;20862;-67
2022/12/21 10:51:42;;;;;;;2.40;2.20;;;22.90;54.50;;;;;;4891949;29;20462;-72
2022/12/21 10:54:11;;;;;;;3.80;3.23;;;22.90;54.60;;;;;;4891993;29;20466;-71
2022/12/21 10:56:46;;;;;;;2.63;2.53;;;22.90;54.60;;;;;;4891034;29;20521;-66
2022/12/21 10:59:21;;;;;;;2.87;2.67;;;22.90;54.70;;;;;;4895144;29;20804;-67
2022/12/21 11:01:50;;;;;;;2.93;2.73;;;22.90;54.70;;;;;;4892152;29;20914;-68
2022/12/21 11:04:29;;;;;;;4.20;2.80;;;23.00;54.70;;;;;;4893719;29;20814;-66
2022/12/21 11:07:00;;;;;;;3.83;2.60;;;22.90;54.70;;;;;;4893816;29;20467;-67
2022/12/21 11:09:56;;;;;;;2.80;2.60;;;23.00;54.70;;;;;;4889247;29;20467;-67
2022/12/21 11:12:51;;;;;;;2.43;2.27;;;22.90;54.70;;;;;;4892504;29;20462;-65
2022/12/21 11:15:21;;;;;;;4.03;2.90;;;22.90;54.00;;;;;;4896851;29;20968;-66
2022/12/21 11:18:25;;;;;;;3.00;2.80;;;22.80;53.60;;;;;;4896183;29;20484;-65
2022/12/21 11:20:55;;;;;;;4.40;2.87;;;22.80;53.50;;;;;;4892221;29;20462;-65
2022/12/21 11:23:23;;;;;;;2.60;2.40;;;22.70;53.50;;;;;;4894438;29;20558;-65
2022/12/21 11:25:52;;;;;;;3.27;2.97;;;22.70;53.50;;;;;;4890428;29;20454;-64
2022/12/21 11:28:21;;;;;;;2.93;2.73;;;22.60;53.60;;;;;;4894793;29;20461;-65
2022/12/21 11:30:57;;;;;;;3.50;3.20;;;22.60;53.70;;;;;;4889889;29;21018;-66
2022/12/21 11:33:25;;;;;;;3.50;3.30;;;22.50;53.70;;;;;;4890407;29;20453;-65
2022/12/21 11:36:11;;;;;;;2.80;2.60;;;22.50;53.60;;;;;;4891700;29;20516;-65
2022/12/21 11:38:40;;;;;;;4.00;3.70;;;22.50;53.70;;;;;;4890177;29;21034;-66
2022/12/21 11:41:20;;;;;;;5.80;3.20;;;22.50;53.70;;;;;;4890734;29;21036;-65
2022/12/21 11:43:50;;;;;;;3.83;3.53;;;22.50;53.80;;;;;;4889431;29;20470;-66
2022/12/21 11:46:36;;;;;;;4.00;3.70;;;22.50;53.90;;;;;;4886893;29;20862;-64
2022/12/21 11:50:04;;;;;;;2.93;2.73;;;22.50;53.80;;;;;;4888236;29;21525;-65
2022/12/21 11:52:46;;;;;;;3.50;3.20;;;22.50;53.90;;;;;;4886566;29;20497;-64
2022/12/21 11:55:21;;;;;;;3.40;3.20;;;22.40;53.80;;;;;;4889644;29;20474;-66
2022/12/21 11:57:57;;;;;;;3.27;3.07;;;22.40;53.90;;;;;;4892494;29;20537;-67
2022/12/21 12:00:26;;;;;;;3.30;3.10;;;22.40;54.00;;;;;;4892317;29;20469;-64
2022/12/21 12:03:56;;;;;;;4.23;3.50;;;22.40;54.10;;;;;;4888926;29;20458;-65
2022/12/21 12:06:52;;;;;;;3.33;3.03;;;22.40;54.10;;;;;;4870413;29;20566;-65
2022/12/21 12:09:45;;;;;;;3.20;2.90;;;22.40;54.10;;;;;;4888477;29;20454;-64
2022/12/21 12:12:25;;;;;;;4.77;3.20;;;22.40;54.20;;;;;;4889545;29;20495;-64
2022/12/21 12:15:07;;;;;;;2.43;2.17;;;22.40;54.20;;;;;;4885058;29;20475;-68
2022/12/21 12:17:51;;;;;;;2.93;2.73;;;22.40;54.20;;;;;;4888620;29;20914;-65
2022/12/21 12:20:36;;;;;;;5.60;2.87;;;22.40;54.20;;;;;;4885754;29;20542;-70
2022/12/21 12:23:15;;;;;;;3.20;2.90;;;22.40;54.20;;;;;;4890130;29;20473;-66
2022/12/21 12:25:58;;;;;;;2.77;2.57;;;22.40;54.20;;;;;;4892693;29;20808;-66
2022/12/21 12:28:51;;;;;;;3.50;2.57;;;22.50;54.50;;;;;;4889535;29;20793;-66
2022/12/21 12:31:31;;;;;;;3.20;3.00;;;22.60;54.60;;;;;;4881731;29;20568;-70
2022/12/21 12:34:14;;;;;;;2.87;2.60;;;22.60;54.50;;;;;;4889447;29;20983;-66
2022/12/21 12:36:52;;;;;;;3.27;2.97;;;22.70;54.60;;;;;;4890343;29;20994;-71
2022/12/21 12:39:36;;;;;;;3.50;3.20;;;22.70;54.70;;;;;;4887126;29;20547;-67
2022/12/21 12:42:09;;;;;;;3.00;2.80;;;22.70;54.60;;;;;;4886938;29;21065;-65
2022/12/21 12:44:51;;;;;;;4.63;3.10;;;22.70;54.70;;;;;;4887729;29;20456;-65
2022/12/21 12:47:35;;;;;;;2.53;2.33;;;22.70;54.70;;;;;;4886230;29;20538;-65
2022/12/21 12:50:15;;;;;;;3.23;2.77;;;22.80;55.00;;;;;;4892083;29;20461;-70
2022/12/21 12:53:00;;;;;;;2.80;2.53;;;22.80;54.90;;;;;;4885525;29;20491;-66
2022/12/21 12:55:38;;;;;;;3.03;2.80;;;22.80;55.00;;;;;;4890958;29;20997;-66
2022/12/21 12:58:17;;;;;;;3.07;2.87;;;22.80;54.90;;;;;;4890263;29;20585;-71
2022/12/21 13:00:54;;;;;;;2.93;2.73;;;22.80;54.90;;;;;;4887708;29;20939;-71
2022/12/21 13:03:36;;;;;;;2.67;2.50;;;22.80;55.00;;;;;;4891015;29;20864;-71
2022/12/21 13:06:16;;;;;;;3.13;2.90;;;22.80;55.00;;;;;;4890398;29;20455;-66
2022/12/21 13:08:56;;;;;;;4.33;2.63;;;22.80;55.20;;;;;;4884937;29;20470;-70
2022/12/21 13:11:38;;;;;;;3.00;2.80;;;22.90;55.20;;;;;;4889999;29;20489;-66
2022/12/21 13:14:22;;;;;;;7.23;2.63;;;23.00;55.10;;;;;;4892939;29;20465;-68
2022/12/21 13:16:56;;;;;;;3.20;2.90;;;23.20;54.80;;;;;;4891471;29;20451;-67
2022/12/21 13:19:29;;;;;;;3.07;2.73;;;23.30;54.30;;;;;;4890669;29;20479;-65
2022/12/21 13:22:02;;;;;;;2.60;2.50;;;23.40;54.10;;;;;;4888737;29;20998;-65
2022/12/21 13:24:38;;;;;;;3.10;1.97;;;23.50;54.30;;;;;;4893894;29;20779;-68
2022/12/21 13:27:08;;;;;;;3.07;2.50;;;23.60;53.90;;;;;;4889623;29;20483;-70
2022/12/21 13:29:44;;;;;;;3.20;2.90;;;23.60;54.20;;;;;;4894074;29;20926;-66
2022/12/21 13:32:16;;;;;;;4.60;3.47;;;23.70;53.90;;;;;;4892534;29;20870;-67
2022/12/21 13:34:52;;;;;;;3.27;2.80;;;23.70;53.50;;;;;;4892237;29;20881;-68